| time (UTC) | temp C | wind direction | speed KPH | gust KPH | rain 1hr cm | rain 24hr cm | rain mn cm | humidity % | barometer mb |
| 20260509034235 | 10 | 151 | 4.8 | 4.8 | 0.00 | 0.00 | 0.05 | 87 | 1007.5 |
| 20260509033735 | 10 | 146 | 4.8 | 4.8 | 0.00 | 0.00 | 0.05 | 87 | 1007.5 |
| 20260509032734 | 10 | 142 | 4.8 | 4.8 | 0.00 | 0.00 | 0.05 | 86 | 1007.5 |
| 20260509032235 | 10 | 135 | 4.8 | 4.8 | 0.00 | 0.00 | 0.05 | 85 | 1007.8 |
| 20260509031235 | 10 | 149 | 4.8 | 4.8 | 0.00 | 0.00 | 0.05 | 85 | 1007.8 |
| 20260509030235 | 10 | 146 | 4.8 | 4.8 | 0.00 | 0.00 | 0.05 | 84 | 1007.8 |
| 20260509025734 | 11 | 149 | 4.8 | 4.8 | 0.00 | 0.00 | 0.05 | 84 | 1007.8 |
| 20260509024734 | 11 | 148 | 6.4 | 6.4 | 0.00 | 0.00 | 0.05 | 83 | 1007.8 |
| 20260509023735 | 11 | 160 | 6.4 | 6.4 | 0.00 | 0.00 | 0.05 | 82 | 1007.8 |
| 20260509022735 | 11 | 152 | 6.4 | 6.4 | 0.00 | 0.00 | 0.05 | 81 | 1007.8 |
| 20260509021734 | 11 | 154 | 6.4 | 6.4 | 0.00 | 0.00 | 0.05 | 80 | 1007.8 |
| 20260509020734 | 12 | 149 | 4.8 | 4.8 | 0.00 | 0.00 | 0.05 | 79 | 1007.8 |
| 20260509015734 | 12 | 150 | 4.8 | 4.8 | 0.00 | 0.00 | 0.05 | 78 | 1007.8 |
| 20260509014735 | 12 | 149 | 4.8 | 4.8 | 0.00 | 0.00 | 0.05 | 76 | 1007.8 |
| 20260509014235 | 12 | 150 | 4.8 | 4.8 | 0.00 | 0.00 | 0.05 | 75 | 1007.5 |
| 20260509013235 | 13 | 166 | 3.2 | 3.2 | 0.00 | 0.00 | 0.05 | 74 | 1007.5 |
| 20260509012235 | 13 | 165 | 3.2 | 3.2 | 0.00 | 0.00 | 0.05 | 74 | 1007.5 |
| 20260509011734 | 13 | 155 | 3.2 | 3.2 | 0.00 | 0.00 | 0.05 | 72 | 1007.5 |
| 20260509011234 | 13 | 155 | 3.2 | 3.2 | 0.00 | 0.00 | 0.05 | 72 | 1007.5 |
| 20260509010236 | 13 | 165 | 3.2 | 3.2 | 0.00 | 0.00 | 0.05 | 71 | 1007.5 |
| 20260509005735 | 13 | 163 | 3.2 | 3.2 | 0.00 | 0.00 | 0.05 | 70 | 1007.5 |
| 20260509005236 | 13 | 159 | 3.2 | 3.2 | 0.00 | 0.00 | 0.05 | 70 | 1007.1 |
| 20260509004236 | 14 | 158 | 1.6 | 1.6 | 0.00 | 0.00 | 0.05 | 67 | 1007.1 |
| 20260509003735 | 14 | 211 | 1.6 | 1.6 | 0.00 | 0.00 | 0.05 | 67 | 1007.1 |
| 20260509002735 | 15 | 190 | 3.2 | 3.2 | 0.00 | 0.00 | 0.05 | 64 | 1007.1 |
| 20260509002234 | 15 | 219 | 3.2 | 3.2 | 0.00 | 0.00 | 0.05 | 63 | 1007.1 |
| 20260509001235 | 15 | 196 | 3.2 | 3.2 | 0.00 | 0.00 | 0.05 | 62 | 1007.1 |
| 20260509000236 | 15 | 158 | 3.2 | 3.2 | 0.00 | 0.00 | 0.05 | 61 | 1007.1 |
| 20260508235735 | 15 | 174 | 3.2 | 3.2 | 0.00 | 0.00 | 0.05 | 60 | 1007.1 |
| 20260508234735 | 16 | 185 | 3.2 | 3.2 | 0.00 | 0.00 | 0.05 | 56 | 1007.1 |
| 20260508233735 | 16 | 195 | 3.2 | 3.2 | 0.00 | 0.00 | 0.05 | 52 | 1007.1 |
| 20260508232735 | 16 | 176 | 4.8 | 4.8 | 0.00 | 0.00 | 0.05 | 51 | 1007.1 |
| 20260508232235 | 16 | 172 | 4.8 | 4.8 | 0.00 | 0.00 | 0.05 | 50 | 1007.1 |
| 20260508231235 | 16 | 171 | 4.8 | 4.8 | 0.00 | 0.00 | 0.05 | 49 | 1007.1 |
| 20260508230235 | 16 | 171 | 4.8 | 4.8 | 0.00 | 0.00 | 0.05 | 48 | 1006.8 |
| 20260508225235 | 16 | 163 | 3.2 | 3.2 | 0.00 | 0.00 | 0.05 | 46 | 1006.8 |
| 20260508224735 | 17 | 218 | 3.2 | 3.2 | 0.00 | 0.00 | 0.05 | 47 | 1006.8 |
| 20260508224236 | 17 | 177 | 4.8 | 4.8 | 0.00 | 0.00 | 0.05 | 47 | 1007.1 |
| 20260508223735 | 17 | 195 | 3.2 | 3.2 | 0.00 | 0.00 | 0.05 | 45 | 1007.1 |
| 20260508222736 | 17 | 252 | 3.2 | 3.2 | 0.00 | 0.00 | 0.05 | 41 | 1007.1 |
| 20260508221735 | 17 | 172 | 3.2 | 3.2 | 0.00 | 0.00 | 0.05 | 44 | 1007.1 |
| 20260508220735 | 17 | 209 | 3.2 | 3.2 | 0.00 | 0.00 | 0.05 | 43 | 1007.1 |
| 20260508215736 | 18 | 221 | 3.2 | 3.2 | 0.00 | 0.00 | 0.05 | 38 | 1007.1 |
| 20260508214735 | 17 | 284 | 4.8 | 4.8 | 0.00 | 0.00 | 0.05 | 37 | 1007.1 |
| 20260508213735 | 17 | 254 | 3.2 | 3.2 | 0.00 | 0.00 | 0.05 | 37 | 1007.1 |
| 20260508212736 | 17 | 242 | 3.2 | 3.2 | 0.00 | 0.00 | 0.05 | 38 | 1007.5 |
| 20260508212235 | 17 | 242 | 3.2 | 3.2 | 0.00 | 0.00 | 0.05 | 38 | 1007.5 |
| 20260508211235 | 17 | 259 | 3.2 | 3.2 | 0.00 | 0.00 | 0.05 | 39 | 1007.5 |
| 20260508210235 | 17 | 230 | 4.8 | 4.8 | 0.00 | 0.00 | 0.05 | 38 | 1007.5 |
| 20260508205735 | 17 | 212 | 4.8 | 4.8 | 0.00 | 0.00 | 0.05 | 38 | 1007.5 |
| 20260508204735 | 17 | 233 | 4.8 | 4.8 | 0.00 | 0.00 | 0.05 | 38 | 1007.5 |
| 20260508203735 | 17 | 273 | 4.8 | 4.8 | 0.00 | 0.00 | 0.05 | 37 | 1007.5 |
| 20260508203235 | 17 | 205 | 3.2 | 3.2 | 0.00 | 0.00 | 0.05 | 37 | 1007.8 |
| 20260508202235 | 17 | 212 | 3.2 | 3.2 | 0.00 | 0.00 | 0.05 | 39 | 1008.1 |
| 20260508201235 | 16 | 273 | 3.2 | 3.2 | 0.00 | 0.00 | 0.05 | 41 | 1008.1 |
| 20260508200235 | 16 | 278 | 3.2 | 3.2 | 0.00 | 0.00 | 0.05 | 39 | 1008.5 |
| 20260508195235 | 15 | 174 | 3.2 | 3.2 | 0.00 | 0.00 | 0.05 | 40 | 1008.5 |
| 20260508194236 | 15 | 127 | 3.2 | 3.2 | 0.00 | 0.00 | 0.05 | 39 | 1008.5 |
| 20260508193236 | 15 | 77 | 3.2 | 3.2 | 0.00 | 0.00 | 0.05 | 38 | 1008.5 |
| 20260508192735 | 15 | 49 | 3.2 | 3.2 | 0.00 | 0.00 | 0.05 | 42 | 1008.5 |
| 20260508192235 | 15 | 20 | 3.2 | 3.2 | 0.00 | 0.00 | 0.05 | 42 | 1008.8 |
| 20260508191235 | 15 | 151 | 3.2 | 3.2 | 0.00 | 0.00 | 0.05 | 40 | 1009.1 |
| 20260508190235 | 15 | 45 | 3.2 | 3.2 | 0.00 | 0.00 | 0.05 | 44 | 1009.1 |
| 20260508185735 | 15 | 32 | 3.2 | 3.2 | 0.00 | 0.00 | 0.05 | 42 | 1009.1 |
| 20260508184735 | 14 | 46 | 3.2 | 3.2 | 0.00 | 0.00 | 0.05 | 47 | 1009.1 |
| 20260508184235 | 14 | 54 | 3.2 | 3.2 | 0.00 | 0.00 | 0.05 | 43 | 1009.1 |
| 20260508183736 | 14 | 61 | 3.2 | 3.2 | 0.00 | 0.00 | 0.05 | 47 | 1009.5 |
| 20260508183235 | 14 | 44 | 3.2 | 3.2 | 0.00 | 0.00 | 0.05 | 47 | 1009.5 |
| 20260508182236 | 15 | 141 | 3.2 | 3.2 | 0.00 | 0.00 | 0.05 | 41 | 1009.5 |
| 20260508181235 | 15 | 38 | 4.8 | 4.8 | 0.00 | 0.00 | 0.05 | 42 | 1009.5 |
| 20260508180236 | 14 | 50 | 4.8 | 4.8 | 0.00 | 0.00 | 0.05 | 41 | 1009.8 |
| 20260508175736 | 14 | 32 | 4.8 | 4.8 | 0.00 | 0.00 | 0.05 | 42 | 1009.8 |
| 20260508174735 | 14 | 35 | 3.2 | 3.2 | 0.00 | 0.00 | 0.05 | 40 | 1010.2 |
| 20260508174235 | 13 | 36 | 3.2 | 3.2 | 0.00 | 0.00 | 0.05 | 44 | 1010.2 |
| 20260508173236 | 14 | 92 | 3.2 | 3.2 | 0.00 | 0.00 | 0.05 | 42 | 1010.2 |
| 20260508172235 | 14 | 127 | 4.8 | 4.8 | 0.00 | 0.00 | 0.05 | 40 | 1010.2 |
| 20260508171235 | 14 | 68 | 4.8 | 4.8 | 0.00 | 0.00 | 0.05 | 40 | 1010.2 |
| 20260508170736 | 14 | 50 | 3.2 | 3.2 | 0.00 | 0.00 | 0.05 | 41 | 1010.5 |
| 20260508165736 | 13 | 49 | 3.2 | 3.2 | 0.00 | 0.00 | 0.05 | 45 | 1010.8 |
| 20260508164736 | 13 | 82 | 3.2 | 3.2 | 0.00 | 0.00 | 0.05 | 44 | 1010.8 |
| 20260508163737 | 13 | 33 | 3.2 | 3.2 | 0.00 | 0.00 | 0.05 | 45 | 1010.8 |
| 20260508163236 | 13 | 55 | 3.2 | 3.2 | 0.00 | 0.00 | 0.05 | 47 | 1010.8 |
| 20260508162236 | 14 | 316 | 3.2 | 3.2 | 0.00 | 0.00 | 0.05 | 40 | 1010.8 |
| 20260508161736 | 13 | 329 | 3.2 | 3.2 | 0.00 | 0.00 | 0.05 | 38 | 1010.8 |
| 20260508160738 | 13 | 203 | 3.2 | 3.2 | 0.00 | 0.00 | 0.05 | 37 | 1010.8 |
| 20260508160237 | 13 | 247 | 3.2 | 3.2 | 0.00 | 0.00 | 0.05 | 39 | 1011.2 |
| 20260508155737 | 13 | 266 | 3.2 | 3.2 | 0.00 | 0.00 | 0.05 | 38 | 1011.2 |
| 20260508155237 | 13 | 237 | 1.6 | 1.6 | 0.00 | 0.00 | 0.05 | 38 | 1010.8 |
| 20260508154238 | 13 | 253 | 1.6 | 1.6 | 0.00 | 0.00 | 0.05 | 39 | 1011.2 |
| 20260508153736 | 13 | 275 | 1.6 | 1.6 | 0.00 | 0.00 | 0.05 | 39 | 1011.2 |
| 20260508153236 | 13 | 298 | 1.6 | 1.6 | 0.00 | 0.00 | 0.05 | 40 | 1011.2 |
| 20260508152236 | 13 | 305 | 3.2 | 3.2 | 0.00 | 0.00 | 0.05 | 41 | 1011.2 |
| 20260508151736 | 13 | 319 | 3.2 | 3.2 | 0.00 | 0.00 | 0.05 | 44 | 1011.5 |
| 20260508150736 | 12 | 238 | 3.2 | 3.2 | 0.00 | 0.00 | 0.05 | 48 | 1011.5 |
| 20260508145736 | 13 | 188 | 3.2 | 3.2 | 0.00 | 0.00 | 0.05 | 47 | 1011.5 |
| 20260508145235 | 12 | 33 | 3.2 | 3.2 | 0.00 | 0.00 | 0.05 | 50 | 1011.5 |
| 20260508144235 | 12 | 335 | 3.2 | 3.2 | 0.00 | 0.00 | 0.05 | 49 | 1011.5 |
| 20260508143236 | 11 | 247 | 1.6 | 1.6 | 0.00 | 0.00 | 0.05 | 49 | 1011.5 |
| 20260508142736 | 12 | 312 | 1.6 | 1.6 | 0.00 | 0.00 | 0.05 | 52 | 1011.9 |
| 20260508141736 | 11 | 25 | 1.6 | 1.6 | 0.00 | 0.00 | 0.05 | 50 | 1011.9 |
| 20260508140736 | 11 | 305 | 1.6 | 1.6 | 0.00 | 0.00 | 0.05 | 56 | 1011.9 |
| 20260508135736 | 10 | 312 | 1.6 | 1.6 | 0.00 | 0.00 | 0.05 | 60 | 1011.9 |
| 20260508134736 | 10 | 276 | 1.6 | 1.6 | 0.00 | 0.00 | 0.05 | 61 | 1011.9 |
| 20260508133737 | 10 | 252 | 1.6 | 1.6 | 0.00 | 0.00 | 0.05 | 61 | 1011.9 |
| 20260508132737 | 9 | 233 | 1.6 | 1.6 | 0.00 | 0.00 | 0.05 | 66 | 1011.9 |
| 20260508132236 | 8 | 351 | 1.6 | 1.6 | 0.00 | 0.00 | 0.05 | 69 | 1011.9 |
| 20260508131236 | 8 | 210 | 1.6 | 1.6 | 0.00 | 0.00 | 0.05 | 69 | 1011.9 |
| 20260508130237 | 8 | 195 | 1.6 | 1.6 | 0.00 | 0.00 | 0.05 | 71 | 1011.9 |
| 20260508125736 | 8 | 250 | 1.6 | 1.6 | 0.00 | 0.00 | 0.05 | 71 | 1011.9 |
| 20260508125236 | 8 | 252 | 1.6 | 1.6 | 0.00 | 0.00 | 0.05 | 72 | 1011.9 |
| 20260508124237 | 7 | 281 | 0.0 | 0.0 | 0.00 | 0.00 | 0.05 | 75 | 1011.5 |
| 20260508123736 | 7 | 292 | 0.0 | 0.0 | 0.00 | 0.00 | 0.05 | 75 | 1011.5 |
| 20260508122737 | 6 | 220 | 0.0 | 0.0 | 0.00 | 0.00 | 0.05 | 80 | 1011.5 |
| 20260508122236 | 5 | 305 | 0.0 | 0.0 | 0.00 | 0.00 | 0.05 | 84 | 1011.5 |
| 20260508121736 | 5 | 305 | 0.0 | 0.0 | 0.00 | 0.00 | 0.05 | 84 | 1011.5 |
| 20260508120737 | 5 | 131 | 0.0 | 0.0 | 0.00 | 0.00 | 0.05 | 87 | 1011.2 |
| 20260508120236 | 4 | 99 | 0.0 | 0.0 | 0.00 | 0.00 | 0.05 | 90 | 1011.2 |
| 20260508115237 | 4 | 0 | 0.0 | 0.0 | 0.00 | 0.00 | 0.05 | 92 | 1011.2 |
| 20260508114736 | 3 | 94 | 0.0 | 0.0 | 0.00 | 0.00 | 0.05 | 92 | 1011.2 |
| 20260508113736 | 3 | 276 | 0.0 | 0.0 | 0.00 | 0.00 | 0.05 | 94 | 1011.2 |
| 20260508113236 | 3 | 115 | 0.0 | 0.0 | 0.00 | 0.00 | 0.05 | 95 | 1011.2 |
| 20260508112236 | 3 | 236 | 0.0 | 0.0 | 0.00 | 0.00 | 0.05 | 96 | 1011.2 |
| 20260508111236 | 3 | 232 | 0.0 | 0.0 | 0.00 | 0.00 | 0.05 | 95 | 1011.2 |
| 20260508110236 | 2 | 234 | 0.0 | 0.0 | 0.00 | 0.00 | 0.05 | 96 | 1011.2 |
| 20260508105236 | 2 | 223 | 0.0 | 0.0 | 0.00 | 0.00 | 0.05 | 96 | 1011.2 |
| 20260508104237 | 2 | 220 | 0.0 | 0.0 | 0.00 | 0.00 | 0.05 | 95 | 1010.8 |
| 20260508103237 | 3 | 188 | 0.0 | 0.0 | 0.00 | 0.00 | 0.05 | 94 | 1010.8 |
| 20260508102736 | 3 | 177 | 0.0 | 0.0 | 0.00 | 0.00 | 0.05 | 94 | 1010.8 |
| 20260508101737 | 3 | 222 | 0.0 | 0.0 | 0.00 | 0.00 | 0.05 | 94 | 1011.2 |
| 20260508101236 | 3 | 211 | 0.0 | 0.0 | 0.00 | 0.00 | 0.05 | 93 | 1011.2 |
| 20260508100737 | 3 | 221 | 0.0 | 0.0 | 0.00 | 0.00 | 0.05 | 93 | 1011.2 |
| 20260508095737 | 3 | 220 | 0.0 | 0.0 | 0.00 | 0.00 | 0.05 | 93 | 1011.2 |
| 20260508094737 | 3 | 234 | 0.0 | 0.0 | 0.00 | 0.00 | 0.05 | 93 | 1011.2 |
| 20260508093737 | 4 | 198 | 0.0 | 0.0 | 0.00 | 0.00 | 0.05 | 91 | 1011.2 |
| 20260508092737 | 4 | 209 | 0.0 | 0.0 | 0.00 | 0.00 | 0.05 | 89 | 1011.2 |
| 20260508092237 | 4 | 218 | 0.0 | 0.0 | 0.00 | 0.00 | 0.05 | 90 | 1011.2 |
| 20260508091237 | 4 | 202 | 0.0 | 0.0 | 0.03 | 0.00 | 0.05 | 90 | 1011.2 |
| 20260508090737 | 4 | 207 | 0.0 | 0.0 | 0.03 | 0.00 | 0.05 | 90 | 1011.2 |
| 20260508090236 | 5 | 221 | 0.0 | 0.0 | 0.03 | 0.00 | 0.05 | 90 | 1011.2 |
| 20260508085237 | 5 | 176 | 0.0 | 0.0 | 0.03 | 0.00 | 0.05 | 88 | 1011.2 |
| 20260508084237 | 5 | 194 | 0.0 | 0.0 | 0.03 | 0.00 | 0.05 | 87 | 1011.2 |
| 20260508083737 | 5 | 232 | 0.0 | 0.0 | 0.03 | 0.00 | 0.05 | 87 | 1011.2 |
| 20260508082737 | 5 | 78 | 0.0 | 0.0 | 0.00 | 0.00 | 0.05 | 90 | 1011.2 |
| 20260508081736 | 5 | 353 | 0.0 | 0.0 | 0.00 | 0.00 | 0.03 | 90 | 1011.5 |
| 20260508080738 | 5 | 118 | 0.0 | 0.0 | 0.03 | 0.00 | 0.03 | 89 | 1010.8 |
| 20260508080236 | 5 | 183 | 0.0 | 0.0 | 0.03 | 0.00 | 0.03 | 89 | 1011.2 |
| 20260508075237 | 5 | 197 | 0.0 | 0.0 | 0.03 | 0.00 | 0.03 | 88 | 1011.2 |
| 20260508074736 | 5 | 181 | 0.0 | 0.0 | 0.03 | 0.00 | 0.03 | 89 | 1011.2 |
| 20260508073737 | 5 | 246 | 0.0 | 0.0 | 0.03 | 0.00 | 0.03 | 90 | 1011.5 |
| 20260508073237 | 5 | 272 | 0.0 | 0.0 | 0.03 | 0.00 | 0.03 | 89 | 1011.2 |
| 20260508072736 | 5 | 185 | 0.0 | 0.0 | 0.03 | 0.00 | 0.03 | 88 | 1011.2 |
| 20260508071736 | 5 | 134 | 0.0 | 0.0 | 0.03 | 0.00 | 0.03 | 88 | 1011.2 |
| 20260508070736 | 5 | 193 | 0.0 | 0.0 | 0.03 | 0.00 | 0.03 | 90 | 1011.5 |
| 20260508065737 | 5 | 192 | 0.0 | 0.0 | 0.03 | 0.00 | 0.00 | 89 | 1011.5 |
| 20260508064736 | 5 | 222 | 0.0 | 0.0 | 0.00 | 0.00 | 0.00 | 88 | 1011.9 |
| 20260508063737 | 5 | 251 | 0.0 | 0.0 | 0.00 | 0.00 | 0.00 | 86 | 1011.9 |
| 20260508062737 | 5 | 50 | 0.0 | 0.0 | 0.00 | 0.00 | 0.00 | 84 | 1011.9 |
| 20260508061737 | 5 | 355 | 0.0 | 0.0 | 0.00 | 0.00 | 0.00 | 82 | 1011.9 |
| 20260508061237 | 5 | 330 | 0.0 | 0.0 | 0.00 | 0.00 | 0.00 | 82 | 1011.9 |
| 20260508060737 | 5 | 330 | 0.0 | 0.0 | 0.00 | 0.00 | 0.00 | 82 | 1011.9 |
| 20260508055736 | 5 | 152 | 0.0 | 0.0 | 0.00 | 0.00 | 0.00 | 81 | 1011.9 |
| 20260508054737 | 5 | 143 | 0.0 | 0.0 | 0.00 | 0.00 | 0.00 | 80 | 1012.2 |
| 20260508054237 | 6 | 107 | 0.0 | 0.0 | 0.00 | 0.00 | 0.00 | 80 | 1012.2 |
| 20260508053737 | 6 | 30 | 0.0 | 0.0 | 0.00 | 0.00 | 0.00 | 79 | 1012.2 |
| 20260508052737 | 5 | 347 | 0.0 | 0.0 | 0.00 | 0.00 | 0.00 | 79 | 1012.2 |
| 20260508051738 | 5 | 355 | 0.0 | 0.0 | 0.00 | 0.00 | 0.00 | 81 | 1012.2 |
| 20260508051237 | 5 | 0 | 0.0 | 0.0 | 0.00 | 0.00 | 0.00 | 80 | 1011.9 |
| 20260508050238 | 6 | 13 | 0.0 | 0.0 | 0.00 | 0.00 | 0.00 | 81 | 1011.9 |
| 20260508045737 | 6 | 359 | 0.0 | 0.0 | 0.00 | 0.00 | 0.00 | 79 | 1011.9 |
| 20260508044738 | 6 | 0 | 0.0 | 0.0 | 0.00 | 0.00 | 0.00 | 77 | 1011.9 |
| 20260508044237 | 6 | 0 | 0.0 | 0.0 | 0.00 | 0.00 | 0.00 | 77 | 1011.9 |
| 20260508043237 | 6 | 111 | 0.0 | 0.0 | 0.00 | 0.00 | 0.00 | 75 | 1011.9 |
| 20260508042237 | 6 | 355 | 0.0 | 0.0 | 0.00 | 0.00 | 0.00 | 74 | 1011.9 |
| 20260508041237 | 6 | 13 | 0.0 | 0.0 | 0.00 | 0.00 | 0.00 | 79 | 1011.9 |
| 20260508040237 | 6 | 185 | 0.0 | 0.0 | 0.00 | 0.00 | 0.00 | 81 | 1011.9 |
| 20260508035238 | 6 | 80 | 0.0 | 0.0 | 0.00 | 0.00 | 0.00 | 80 | 1011.9 |